sensor_id;sensor_type;location;lat;lon;timestamp;P1;durP1;ratioP1;P2;durP2;ratioP2
78430;SDS011;67727;50.236;22.452;2023-12-20T00:01:40;30.40;;;16.60;;
78430;SDS011;67727;50.236;22.452;2023-12-20T00:04:06;27.10;;;17.00;;
78430;SDS011;67727;50.236;22.452;2023-12-20T00:06:32;24.10;;;14.40;;
78430;SDS011;67727;50.236;22.452;2023-12-20T00:08:58;27.90;;;15.70;;
78430;SDS011;67727;50.236;22.452;2023-12-20T00:11:24;27.90;;;14.60;;
78430;SDS011;67727;50.236;22.452;2023-12-20T00:13:50;27.30;;;14.50;;
78430;SDS011;67727;50.236;22.452;2023-12-20T00:16:17;23.40;;;13.40;;
78430;SDS011;67727;50.236;22.452;2023-12-20T00:18:43;25.80;;;13.00;;
78430;SDS011;67727;50.236;22.452;2023-12-20T00:21:09;25.10;;;12.90;;
78430;SDS011;67727;50.236;22.452;2023-12-20T00:23:36;23.90;;;13.30;;
78430;SDS011;67727;50.236;22.452;2023-12-20T00:26:02;26.00;;;13.50;;
78430;SDS011;67727;50.236;22.452;2023-12-20T00:28:28;24.90;;;13.60;;
78430;SDS011;67727;50.236;22.452;2023-12-20T00:30:54;26.80;;;15.00;;
78430;SDS011;67727;50.236;22.452;2023-12-20T00:33:20;20.30;;;13.10;;
78430;SDS011;67727;50.236;22.452;2023-12-20T00:35:46;24.50;;;13.60;;
78430;SDS011;67727;50.236;22.452;2023-12-20T00:38:13;23.40;;;13.20;;
78430;SDS011;67727;50.236;22.452;2023-12-20T00:40:39;24.50;;;14.20;;
78430;SDS011;67727;50.236;22.452;2023-12-20T00:43:05;21.60;;;12.70;;
78430;SDS011;67727;50.236;22.452;2023-12-20T00:45:31;21.50;;;12.60;;
78430;SDS011;67727;50.236;22.452;2023-12-20T00:47:57;24.60;;;15.10;;
78430;SDS011;67727;50.236;22.452;2023-12-20T00:50:24;20.40;;;12.00;;
78430;SDS011;67727;50.236;22.452;2023-12-20T00:52:51;23.10;;;13.50;;
78430;SDS011;67727;50.236;22.452;2023-12-20T00:55:17;23.70;;;13.60;;
78430;SDS011;67727;50.236;22.452;2023-12-20T00:57:43;22.60;;;12.90;;
78430;SDS011;67727;50.236;22.452;2023-12-20T01:00:09;23.20;;;11.70;;
78430;SDS011;67727;50.236;22.452;2023-12-20T01:02:36;19.10;;;11.00;;
78430;SDS011;67727;50.236;22.452;2023-12-20T01:05:02;27.80;;;13.80;;
78430;SDS011;67727;50.236;22.452;2023-12-20T01:07:28;25.10;;;13.90;;
78430;SDS011;67727;50.236;22.452;2023-12-20T01:09:54;24.10;;;13.40;;
78430;SDS011;67727;50.236;22.452;2023-12-20T01:12:20;13.80;;;8.70;;
78430;SDS011;67727;50.236;22.452;2023-12-20T01:14:47;25.20;;;13.70;;
78430;SDS011;67727;50.236;22.452;2023-12-20T01:17:13;21.90;;;12.10;;
78430;SDS011;67727;50.236;22.452;2023-12-20T01:19:39;23.40;;;13.70;;
78430;SDS011;67727;50.236;22.452;2023-12-20T01:22:05;31.10;;;15.20;;
78430;SDS011;67727;50.236;22.452;2023-12-20T01:24:31;22.40;;;13.10;;
78430;SDS011;67727;50.236;22.452;2023-12-20T01:26:57;19.10;;;11.90;;
78430;SDS011;67727;50.236;22.452;2023-12-20T01:29:24;21.60;;;12.60;;
78430;SDS011;67727;50.236;22.452;2023-12-20T01:31:50;18.60;;;10.90;;
78430;SDS011;67727;50.236;22.452;2023-12-20T01:34:17;18.80;;;10.40;;
78430;SDS011;67727;50.236;22.452;2023-12-20T01:36:43;17.10;;;9.40;;
78430;SDS011;67727;50.236;22.452;2023-12-20T01:39:09;23.40;;;12.30;;
78430;SDS011;67727;50.236;22.452;2023-12-20T01:41:35;25.10;;;11.30;;
78430;SDS011;67727;50.236;22.452;2023-12-20T01:44:01;23.60;;;13.00;;
78430;SDS011;67727;50.236;22.452;2023-12-20T01:46:28;21.10;;;12.60;;
78430;SDS011;67727;50.236;22.452;2023-12-20T01:48:54;22.90;;;12.80;;
78430;SDS011;67727;50.236;22.452;2023-12-20T01:51:20;20.20;;;12.60;;
78430;SDS011;67727;50.236;22.452;2023-12-20T01:53:47;22.00;;;13.70;;
78430;SDS011;67727;50.236;22.452;2023-12-20T01:56:15;17.50;;;10.60;;
78430;SDS011;67727;50.236;22.452;2023-12-20T01:58:43;25.10;;;12.40;;
78430;SDS011;67727;50.236;22.452;2023-12-20T02:01:11;20.70;;;12.60;;
78430;SDS011;67727;50.236;22.452;2023-12-20T02:03:40;21.90;;;11.50;;
78430;SDS011;67727;50.236;22.452;2023-12-20T02:06:07;17.90;;;11.00;;
78430;SDS011;67727;50.236;22.452;2023-12-20T02:08:35;22.40;;;11.60;;
78430;SDS011;67727;50.236;22.452;2023-12-20T02:11:02;18.50;;;10.10;;
78430;SDS011;67727;50.236;22.452;2023-12-20T02:13:28;22.60;;;11.30;;
78430;SDS011;67727;50.236;22.452;2023-12-20T02:15:54;25.60;;;12.40;;
78430;SDS011;67727;50.236;22.452;2023-12-20T02:18:21;22.30;;;12.40;;
78430;SDS011;67727;50.236;22.452;2023-12-20T02:20:47;22.00;;;12.90;;
78430;SDS011;67727;50.236;22.452;2023-12-20T02:23:14;23.40;;;12.80;;
78430;SDS011;67727;50.236;22.452;2023-12-20T02:25:40;17.70;;;9.70;;
78430;SDS011;67727;50.236;22.452;2023-12-20T02:28:06;22.90;;;12.60;;
78430;SDS011;67727;50.236;22.452;2023-12-20T02:30:32;22.00;;;12.60;;
78430;SDS011;67727;50.236;22.452;2023-12-20T02:33:02;19.80;;;12.00;;
78430;SDS011;67727;50.236;22.452;2023-12-20T02:35:33;23.70;;;12.60;;
78430;SDS011;67727;50.236;22.452;2023-12-20T02:37:59;22.50;;;12.10;;
78430;SDS011;67727;50.236;22.452;2023-12-20T02:40:25;19.40;;;11.50;;
78430;SDS011;67727;50.236;22.452;2023-12-20T02:42:51;19.10;;;10.40;;
78430;SDS011;67727;50.236;22.452;2023-12-20T02:45:17;23.40;;;13.10;;
78430;SDS011;67727;50.236;22.452;2023-12-20T02:47:44;22.20;;;12.40;;
78430;SDS011;67727;50.236;22.452;2023-12-20T02:50:10;25.90;;;11.50;;
78430;SDS011;67727;50.236;22.452;2023-12-20T02:52:36;23.20;;;11.10;;
78430;SDS011;67727;50.236;22.452;2023-12-20T02:55:02;21.20;;;11.20;;
78430;SDS011;67727;50.236;22.452;2023-12-20T02:57:28;19.00;;;10.40;;
78430;SDS011;67727;50.236;22.452;2023-12-20T02:59:54;20.80;;;12.30;;
78430;SDS011;67727;50.236;22.452;2023-12-20T03:02:20;19.60;;;11.40;;
78430;SDS011;67727;50.236;22.452;2023-12-20T03:04:47;18.80;;;10.60;;
78430;SDS011;67727;50.236;22.452;2023-12-20T03:07:13;20.90;;;11.60;;
78430;SDS011;67727;50.236;22.452;2023-12-20T03:09:39;22.90;;;11.70;;
78430;SDS011;67727;50.236;22.452;2023-12-20T03:12:05;21.90;;;11.30;;
78430;SDS011;67727;50.236;22.452;2023-12-20T03:14:31;20.10;;;11.00;;
78430;SDS011;67727;50.236;22.452;2023-12-20T03:16:57;18.60;;;12.40;;
78430;SDS011;67727;50.236;22.452;2023-12-20T03:19:23;21.10;;;13.50;;
78430;SDS011;67727;50.236;22.452;2023-12-20T03:21:50;20.60;;;11.90;;
78430;SDS011;67727;50.236;22.452;2023-12-20T03:24:16;23.60;;;12.50;;
78430;SDS011;67727;50.236;22.452;2023-12-20T03:26:42;23.60;;;13.20;;
78430;SDS011;67727;50.236;22.452;2023-12-20T03:29:08;28.30;;;14.90;;
78430;SDS011;67727;50.236;22.452;2023-12-20T03:31:35;33.80;;;16.60;;
78430;SDS011;67727;50.236;22.452;2023-12-20T03:34:01;23.60;;;14.60;;
78430;SDS011;67727;50.236;22.452;2023-12-20T03:36:27;24.30;;;13.40;;
78430;SDS011;67727;50.236;22.452;2023-12-20T03:38:53;38.40;;;18.50;;
78430;SDS011;67727;50.236;22.452;2023-12-20T03:41:20;28.80;;;16.70;;
78430;SDS011;67727;50.236;22.452;2023-12-20T03:43:46;23.90;;;12.90;;
78430;SDS011;67727;50.236;22.452;2023-12-20T03:46:12;27.60;;;14.10;;
78430;SDS011;67727;50.236;22.452;2023-12-20T03:48:38;25.60;;;14.20;;
78430;SDS011;67727;50.236;22.452;2023-12-20T03:51:05;24.10;;;13.20;;
78430;SDS011;67727;50.236;22.452;2023-12-20T03:53:31;23.60;;;11.80;;
78430;SDS011;67727;50.236;22.452;2023-12-20T03:55:57;21.70;;;11.50;;
78430;SDS011;67727;50.236;22.452;2023-12-20T03:58:23;20.80;;;11.40;;
78430;SDS011;67727;50.236;22.452;2023-12-20T04:00:49;18.60;;;8.60;;
78430;SDS011;67727;50.236;22.452;2023-12-20T04:03:16;23.00;;;12.60;;
78430;SDS011;67727;50.236;22.452;2023-12-20T04:05:42;19.80;;;11.50;;
78430;SDS011;67727;50.236;22.452;2023-12-20T04:08:08;21.60;;;12.10;;
78430;SDS011;67727;50.236;22.452;2023-12-20T04:10:35;22.40;;;12.60;;
78430;SDS011;67727;50.236;22.452;2023-12-20T04:13:03;20.50;;;10.00;;
78430;SDS011;67727;50.236;22.452;2023-12-20T04:15:30;22.80;;;12.00;;
78430;SDS011;67727;50.236;22.452;2023-12-20T04:17:56;21.30;;;12.30;;
78430;SDS011;67727;50.236;22.452;2023-12-20T04:20:22;22.40;;;11.40;;
78430;SDS011;67727;50.236;22.452;2023-12-20T04:22:49;20.20;;;11.60;;
78430;SDS011;67727;50.236;22.452;2023-12-20T04:25:15;23.50;;;12.80;;
78430;SDS011;67727;50.236;22.452;2023-12-20T04:27:41;21.40;;;11.10;;
78430;SDS011;67727;50.236;22.452;2023-12-20T04:30:07;21.00;;;11.90;;
78430;SDS011;67727;50.236;22.452;2023-12-20T04:32:34;15.50;;;9.90;;
78430;SDS011;67727;50.236;22.452;2023-12-20T04:35:01;17.80;;;9.30;;
78430;SDS011;67727;50.236;22.452;2023-12-20T04:37:27;16.60;;;9.80;;
78430;SDS011;67727;50.236;22.452;2023-12-20T04:39:53;19.30;;;10.30;;
78430;SDS011;67727;50.236;22.452;2023-12-20T04:42:19;19.40;;;10.10;;
78430;SDS011;67727;50.236;22.452;2023-12-20T04:44:45;20.50;;;10.90;;
78430;SDS011;67727;50.236;22.452;2023-12-20T04:47:11;20.80;;;11.90;;
78430;SDS011;67727;50.236;22.452;2023-12-20T04:49:38;16.90;;;10.20;;
78430;SDS011;67727;50.236;22.452;2023-12-20T04:52:04;22.90;;;12.70;;
78430;SDS011;67727;50.236;22.452;2023-12-20T04:54:31;22.10;;;12.60;;
78430;SDS011;67727;50.236;22.452;2023-12-20T04:56:57;19.80;;;11.70;;
78430;SDS011;67727;50.236;22.452;2023-12-20T04:59:24;23.70;;;13.00;;
78430;SDS011;67727;50.236;22.452;2023-12-20T05:01:50;17.60;;;10.10;;
78430;SDS011;67727;50.236;22.452;2023-12-20T05:04:16;20.80;;;10.80;;
78430;SDS011;67727;50.236;22.452;2023-12-20T05:06:42;23.80;;;13.20;;
78430;SDS011;67727;50.236;22.452;2023-12-20T05:09:08;22.40;;;11.10;;
78430;SDS011;67727;50.236;22.452;2023-12-20T05:11:34;23.10;;;12.00;;
78430;SDS011;67727;50.236;22.452;2023-12-20T05:14:01;27.50;;;13.10;;
78430;SDS011;67727;50.236;22.452;2023-12-20T05:16:27;29.90;;;13.30;;
78430;SDS011;67727;50.236;22.452;2023-12-20T05:18:53;23.70;;;13.40;;
78430;SDS011;67727;50.236;22.452;2023-12-20T05:21:20;20.80;;;11.90;;
78430;SDS011;67727;50.236;22.452;2023-12-20T05:23:47;24.00;;;12.40;;
78430;SDS011;67727;50.236;22.452;2023-12-20T05:26:13;27.70;;;13.60;;
78430;SDS011;67727;50.236;22.452;2023-12-20T05:28:39;25.50;;;13.80;;
78430;SDS011;67727;50.236;22.452;2023-12-20T05:31:05;28.20;;;13.30;;
78430;SDS011;67727;50.236;22.452;2023-12-20T05:33:32;26.10;;;13.10;;
78430;SDS011;67727;50.236;22.452;2023-12-20T05:35:59;25.90;;;13.60;;
78430;SDS011;67727;50.236;22.452;2023-12-20T05:38:25;20.50;;;12.60;;
78430;SDS011;67727;50.236;22.452;2023-12-20T05:40:51;20.80;;;11.70;;
78430;SDS011;67727;50.236;22.452;2023-12-20T05:43:17;25.90;;;13.70;;
78430;SDS011;67727;50.236;22.452;2023-12-20T05:45:44;25.50;;;13.80;;
78430;SDS011;67727;50.236;22.452;2023-12-20T05:48:10;25.50;;;11.80;;
78430;SDS011;67727;50.236;22.452;2023-12-20T05:50:36;28.30;;;13.40;;
78430;SDS011;67727;50.236;22.452;2023-12-20T05:53:02;32.60;;;15.10;;
78430;SDS011;67727;50.236;22.452;2023-12-20T05:55:28;26.80;;;12.60;;
78430;SDS011;67727;50.236;22.452;2023-12-20T05:57:54;25.00;;;13.80;;
78430;SDS011;67727;50.236;22.452;2023-12-20T06:00:20;26.10;;;14.80;;
78430;SDS011;67727;50.236;22.452;2023-12-20T06:02:47;29.90;;;15.00;;
78430;SDS011;67727;50.236;22.452;2023-12-20T06:05:13;29.60;;;16.90;;
78430;SDS011;67727;50.236;22.452;2023-12-20T06:07:39;27.70;;;15.10;;
78430;SDS011;67727;50.236;22.452;2023-12-20T06:10:05;26.00;;;12.80;;
78430;SDS011;67727;50.236;22.452;2023-12-20T06:12:32;25.70;;;13.60;;
78430;SDS011;67727;50.236;22.452;2023-12-20T06:14:59;26.90;;;13.60;;
78430;SDS011;67727;50.236;22.452;2023-12-20T06:17:25;24.40;;;12.90;;
78430;SDS011;67727;50.236;22.452;2023-12-20T06:19:51;26.90;;;13.80;;
78430;SDS011;67727;50.236;22.452;2023-12-20T06:22:18;23.20;;;13.00;;
78430;SDS011;67727;50.236;22.452;2023-12-20T06:24:44;21.90;;;10.90;;
78430;SDS011;67727;50.236;22.452;2023-12-20T06:27:10;28.40;;;13.00;;
78430;SDS011;67727;50.236;22.452;2023-12-20T06:29:37;24.30;;;12.50;;
78430;SDS011;67727;50.236;22.452;2023-12-20T06:32:03;22.70;;;13.20;;
78430;SDS011;67727;50.236;22.452;2023-12-20T06:34:30;27.20;;;15.00;;
78430;SDS011;67727;50.236;22.452;2023-12-20T06:36:56;26.70;;;13.50;;
78430;SDS011;67727;50.236;22.452;2023-12-20T06:39:22;22.80;;;13.40;;
78430;SDS011;67727;50.236;22.452;2023-12-20T06:41:48;28.10;;;16.20;;
78430;SDS011;67727;50.236;22.452;2023-12-20T06:44:14;37.80;;;17.30;;
78430;SDS011;67727;50.236;22.452;2023-12-20T06:46:40;27.00;;;14.10;;
78430;SDS011;67727;50.236;22.452;2023-12-20T06:49:07;25.70;;;13.90;;
78430;SDS011;67727;50.236;22.452;2023-12-20T06:51:33;24.20;;;13.60;;
78430;SDS011;67727;50.236;22.452;2023-12-20T06:53:59;26.20;;;14.20;;
78430;SDS011;67727;50.236;22.452;2023-12-20T06:56:26;25.30;;;13.60;;
78430;SDS011;67727;50.236;22.452;2023-12-20T06:58:52;26.30;;;14.50;;
78430;SDS011;67727;50.236;22.452;2023-12-20T07:01:18;26.80;;;14.70;;
78430;SDS011;67727;50.236;22.452;2023-12-20T07:03:44;25.30;;;14.00;;
78430;SDS011;67727;50.236;22.452;2023-12-20T07:06:11;20.90;;;11.90;;
78430;SDS011;67727;50.236;22.452;2023-12-20T07:08:37;25.60;;;14.10;;
78430;SDS011;67727;50.236;22.452;2023-12-20T07:11:03;27.50;;;14.40;;
78430;SDS011;67727;50.236;22.452;2023-12-20T07:13:29;24.30;;;12.50;;
78430;SDS011;67727;50.236;22.452;2023-12-20T07:15:56;27.20;;;14.00;;
78430;SDS011;67727;50.236;22.452;2023-12-20T07:18:23;27.60;;;13.30;;
78430;SDS011;67727;50.236;22.452;2023-12-20T07:20:50;23.80;;;13.70;;
78430;SDS011;67727;50.236;22.452;2023-12-20T07:23:16;23.50;;;12.50;;
78430;SDS011;67727;50.236;22.452;2023-12-20T07:25:42;17.30;;;11.00;;
78430;SDS011;67727;50.236;22.452;2023-12-20T07:28:08;31.40;;;14.10;;
78430;SDS011;67727;50.236;22.452;2023-12-20T07:30:35;21.30;;;11.40;;
78430;SDS011;67727;50.236;22.452;2023-12-20T07:33:01;22.20;;;12.20;;
78430;SDS011;67727;50.236;22.452;2023-12-20T07:35:28;23.90;;;11.60;;
78430;SDS011;67727;50.236;22.452;2023-12-20T07:37:54;21.70;;;12.10;;
78430;SDS011;67727;50.236;22.452;2023-12-20T07:40:20;25.90;;;13.30;;
78430;SDS011;67727;50.236;22.452;2023-12-20T07:42:47;21.90;;;11.80;;
78430;SDS011;67727;50.236;22.452;2023-12-20T07:45:13;18.90;;;9.60;;
78430;SDS011;67727;50.236;22.452;2023-12-20T07:47:39;24.40;;;11.20;;
78430;SDS011;67727;50.236;22.452;2023-12-20T07:50:06;26.20;;;11.60;;
78430;SDS011;67727;50.236;22.452;2023-12-20T07:52:33;27.20;;;12.30;;
78430;SDS011;67727;50.236;22.452;2023-12-20T07:54:59;25.30;;;11.80;;
78430;SDS011;67727;50.236;22.452;2023-12-20T07:57:28;34.10;;;15.40;;
78430;SDS011;67727;50.236;22.452;2023-12-20T07:59:55;33.40;;;15.30;;
78430;SDS011;67727;50.236;22.452;2023-12-20T08:02:21;27.20;;;15.00;;
78430;SDS011;67727;50.236;22.452;2023-12-20T08:04:48;26.20;;;14.60;;
78430;SDS011;67727;50.236;22.452;2023-12-20T08:07:14;25.80;;;15.10;;
78430;SDS011;67727;50.236;22.452;2023-12-20T08:09:43;29.90;;;14.60;;
78430;SDS011;67727;50.236;22.452;2023-12-20T08:12:09;21.60;;;12.40;;
78430;SDS011;67727;50.236;22.452;2023-12-20T08:14:36;23.00;;;11.80;;
78430;SDS011;67727;50.236;22.452;2023-12-20T08:17:03;20.10;;;11.40;;
78430;SDS011;67727;50.236;22.452;2023-12-20T08:19:29;22.60;;;12.60;;
78430;SDS011;67727;50.236;22.452;2023-12-20T08:21:55;26.40;;;12.90;;
78430;SDS011;67727;50.236;22.452;2023-12-20T08:24:21;23.50;;;11.80;;
78430;SDS011;67727;50.236;22.452;2023-12-20T08:26:47;20.90;;;10.60;;
78430;SDS011;67727;50.236;22.452;2023-12-20T08:29:14;22.90;;;12.70;;
78430;SDS011;67727;50.236;22.452;2023-12-20T08:31:40;26.90;;;13.90;;
78430;SDS011;67727;50.236;22.452;2023-12-20T08:34:06;24.90;;;13.10;;
78430;SDS011;67727;50.236;22.452;2023-12-20T08:36:33;28.90;;;14.80;;
78430;SDS011;67727;50.236;22.452;2023-12-20T08:38:59;31.40;;;16.80;;
78430;SDS011;67727;50.236;22.452;2023-12-20T08:41:26;22.90;;;12.70;;
78430;SDS011;67727;50.236;22.452;2023-12-20T08:43:52;25.20;;;13.20;;
78430;SDS011;67727;50.236;22.452;2023-12-20T08:46:18;22.80;;;12.50;;
78430;SDS011;67727;50.236;22.452;2023-12-20T08:48:45;21.10;;;12.60;;
78430;SDS011;67727;50.236;22.452;2023-12-20T08:51:11;29.10;;;15.40;;
78430;SDS011;67727;50.236;22.452;2023-12-20T08:53:38;22.80;;;13.20;;
78430;SDS011;67727;50.236;22.452;2023-12-20T08:56:05;23.40;;;13.40;;
78430;SDS011;67727;50.236;22.452;2023-12-20T08:58:31;27.00;;;14.70;;
78430;SDS011;67727;50.236;22.452;2023-12-20T09:03:25;25.40;;;12.70;;
78430;SDS011;67727;50.236;22.452;2023-12-20T09:05:51;28.40;;;13.60;;
78430;SDS011;67727;50.236;22.452;2023-12-20T09:08:18;25.50;;;13.70;;
78430;SDS011;67727;50.236;22.452;2023-12-20T09:10:44;26.90;;;13.80;;
78430;SDS011;67727;50.236;22.452;2023-12-20T09:13:12;27.10;;;13.90;;
78430;SDS011;67727;50.236;22.452;2023-12-20T09:15:38;30.80;;;13.10;;
78430;SDS011;67727;50.236;22.452;2023-12-20T09:18:04;29.90;;;12.20;;
78430;SDS011;67727;50.236;22.452;2023-12-20T09:20:31;24.00;;;12.90;;
78430;SDS011;67727;50.236;22.452;2023-12-20T09:22:58;23.20;;;10.90;;
78430;SDS011;67727;50.236;22.452;2023-12-20T09:25:25;23.40;;;13.20;;
78430;SDS011;67727;50.236;22.452;2023-12-20T09:27:52;23.50;;;13.70;;
78430;SDS011;67727;50.236;22.452;2023-12-20T09:30:18;21.70;;;12.50;;
78430;SDS011;67727;50.236;22.452;2023-12-20T09:32:45;23.80;;;13.40;;
78430;SDS011;67727;50.236;22.452;2023-12-20T09:35:11;25.00;;;11.70;;
78430;SDS011;67727;50.236;22.452;2023-12-20T09:37:37;22.80;;;12.60;;
78430;SDS011;67727;50.236;22.452;2023-12-20T09:40:07;49.20;;;21.60;;
78430;SDS011;67727;50.236;22.452;2023-12-20T09:42:50;34.20;;;17.80;;
78430;SDS011;67727;50.236;22.452;2023-12-20T09:45:24;20.90;;;11.50;;
78430;SDS011;67727;50.236;22.452;2023-12-20T09:47:52;21.40;;;12.40;;
78430;SDS011;67727;50.236;22.452;2023-12-20T09:50:20;24.80;;;10.80;;
78430;SDS011;67727;50.236;22.452;2023-12-20T09:52:50;21.40;;;10.70;;
78430;SDS011;67727;50.236;22.452;2023-12-20T09:55:18;23.00;;;13.10;;
78430;SDS011;67727;50.236;22.452;2023-12-20T10:00:13;15.30;;;9.60;;
78430;SDS011;67727;50.236;22.452;2023-12-20T10:05:29;25.20;;;12.70;;
78430;SDS011;67727;50.236;22.452;2023-12-20T10:07:56;23.70;;;12.10;;
78430;SDS011;67727;50.236;22.452;2023-12-20T10:10:24;26.20;;;13.20;;
78430;SDS011;67727;50.236;22.452;2023-12-20T10:13:03;24.70;;;12.90;;
78430;SDS011;67727;50.236;22.452;2023-12-20T10:15:34;25.40;;;12.80;;
78430;SDS011;67727;50.236;22.452;2023-12-20T10:18:02;24.80;;;14.60;;
78430;SDS011;67727;50.236;22.452;2023-12-20T10:20:29;27.00;;;14.00;;
78430;SDS011;67727;50.236;22.452;2023-12-20T10:22:59;23.50;;;14.50;;
78430;SDS011;67727;50.236;22.452;2023-12-20T10:25:26;26.60;;;14.70;;
78430;SDS011;67727;50.236;22.452;2023-12-20T10:28:10;24.00;;;13.90;;
78430;SDS011;67727;50.236;22.452;2023-12-20T10:30:38;21.50;;;12.20;;
78430;SDS011;67727;50.236;22.452;2023-12-20T10:33:07;23.60;;;12.60;;
78430;SDS011;67727;50.236;22.452;2023-12-20T10:35:34;19.70;;;11.20;;
78430;SDS011;67727;50.236;22.452;2023-12-20T10:38:04;18.00;;;10.30;;
78430;SDS011;67727;50.236;22.452;2023-12-20T10:40:35;19.80;;;12.60;;
78430;SDS011;67727;50.236;22.452;2023-12-20T10:43:02;20.40;;;9.10;;
78430;SDS011;67727;50.236;22.452;2023-12-20T10:45:30;23.70;;;12.10;;
78430;SDS011;67727;50.236;22.452;2023-12-20T10:47:56;21.80;;;10.80;;
78430;SDS011;67727;50.236;22.452;2023-12-20T10:50:26;21.10;;;12.40;;
78430;SDS011;67727;50.236;22.452;2023-12-20T10:52:53;24.40;;;13.50;;
78430;SDS011;67727;50.236;22.452;2023-12-20T10:55:21;20.50;;;11.80;;
78430;SDS011;67727;50.236;22.452;2023-12-20T10:57:51;22.10;;;12.00;;
78430;SDS011;67727;50.236;22.452;2023-12-20T11:00:21;19.20;;;10.90;;
78430;SDS011;67727;50.236;22.452;2023-12-20T11:02:49;20.50;;;11.10;;
78430;SDS011;67727;50.236;22.452;2023-12-20T11:05:37;20.00;;;11.10;;
78430;SDS011;67727;50.236;22.452;2023-12-20T11:08:12;16.80;;;10.00;;
78430;SDS011;67727;50.236;22.452;2023-12-20T11:10:55;21.60;;;10.60;;
78430;SDS011;67727;50.236;22.452;2023-12-20T11:13:32;20.50;;;10.80;;
78430;SDS011;67727;50.236;22.452;2023-12-20T11:16:06;16.40;;;8.50;;
78430;SDS011;67727;50.236;22.452;2023-12-20T11:18:33;27.20;;;13.20;;
78430;SDS011;67727;50.236;22.452;2023-12-20T11:21:00;24.30;;;11.90;;
78430;SDS011;67727;50.236;22.452;2023-12-20T11:23:33;20.00;;;10.30;;
78430;SDS011;67727;50.236;22.452;2023-12-20T11:26:00;19.40;;;10.70;;
78430;SDS011;67727;50.236;22.452;2023-12-20T11:28:29;22.60;;;12.20;;
78430;SDS011;67727;50.236;22.452;2023-12-20T11:30:56;21.00;;;12.70;;
78430;SDS011;67727;50.236;22.452;2023-12-20T11:33:27;20.90;;;11.60;;
78430;SDS011;67727;50.236;22.452;2023-12-20T11:35:57;20.60;;;11.80;;
78430;SDS011;67727;50.236;22.452;2023-12-20T11:38:25;23.90;;;13.20;;
78430;SDS011;67727;50.236;22.452;2023-12-20T11:40:53;20.10;;;11.10;;
78430;SDS011;67727;50.236;22.452;2023-12-20T11:43:29;24.70;;;12.00;;
78430;SDS011;67727;50.236;22.452;2023-12-20T11:46:04;21.90;;;12.60;;
78430;SDS011;67727;50.236;22.452;2023-12-20T11:48:34;23.30;;;12.20;;
78430;SDS011;67727;50.236;22.452;2023-12-20T11:51:08;27.10;;;13.30;;
78430;SDS011;67727;50.236;22.452;2023-12-20T11:53:39;27.70;;;14.40;;
78430;SDS011;67727;50.236;22.452;2023-12-20T11:56:08;30.20;;;16.00;;
78430;SDS011;67727;50.236;22.452;2023-12-20T11:58:35;27.20;;;14.60;;
78430;SDS011;67727;50.236;22.452;2023-12-20T12:01:01;24.70;;;13.40;;
78430;SDS011;67727;50.236;22.452;2023-12-20T12:03:30;26.60;;;14.80;;
78430;SDS011;67727;50.236;22.452;2023-12-20T12:05:56;23.80;;;14.00;;
78430;SDS011;67727;50.236;22.452;2023-12-20T12:08:23;22.10;;;10.20;;
78430;SDS011;67727;50.236;22.452;2023-12-20T12:10:50;24.10;;;11.30;;
78430;SDS011;67727;50.236;22.452;2023-12-20T12:13:16;27.70;;;13.40;;
78430;SDS011;67727;50.236;22.452;2023-12-20T12:15:42;19.70;;;11.40;;
78430;SDS011;67727;50.236;22.452;2023-12-20T12:18:10;24.90;;;13.50;;
78430;SDS011;67727;50.236;22.452;2023-12-20T12:20:37;23.30;;;12.20;;
78430;SDS011;67727;50.236;22.452;2023-12-20T12:23:04;31.80;;;15.50;;
78430;SDS011;67727;50.236;22.452;2023-12-20T12:25:34;26.20;;;13.70;;
78430;SDS011;67727;50.236;22.452;2023-12-20T12:28:01;24.30;;;13.60;;
78430;SDS011;67727;50.236;22.452;2023-12-20T12:30:28;28.00;;;13.80;;
78430;SDS011;67727;50.236;22.452;2023-12-20T12:32:56;26.50;;;14.50;;
78430;SDS011;67727;50.236;22.452;2023-12-20T12:35:23;29.30;;;16.10;;
78430;SDS011;67727;50.236;22.452;2023-12-20T12:37:50;27.20;;;15.00;;
78430;SDS011;67727;50.236;22.452;2023-12-20T12:40:17;20.80;;;11.60;;
78430;SDS011;67727;50.236;22.452;2023-12-20T12:42:44;18.80;;;11.20;;
78430;SDS011;67727;50.236;22.452;2023-12-20T12:45:11;24.10;;;12.90;;
78430;SDS011;67727;50.236;22.452;2023-12-20T12:47:37;22.10;;;13.00;;
78430;SDS011;67727;50.236;22.452;2023-12-20T12:50:04;20.20;;;10.70;;
78430;SDS011;67727;50.236;22.452;2023-12-20T12:52:31;23.20;;;11.60;;
78430;SDS011;67727;50.236;22.452;2023-12-20T12:54:57;19.10;;;11.30;;
78430;SDS011;67727;50.236;22.452;2023-12-20T12:57:23;25.60;;;12.90;;
78430;SDS011;67727;50.236;22.452;2023-12-20T12:59:49;23.70;;;12.20;;
78430;SDS011;67727;50.236;22.452;2023-12-20T13:02:16;26.30;;;14.70;;
78430;SDS011;67727;50.236;22.452;2023-12-20T13:04:42;23.10;;;12.60;;
78430;SDS011;67727;50.236;22.452;2023-12-20T13:07:09;20.50;;;11.40;;
78430;SDS011;67727;50.236;22.452;2023-12-20T13:09:38;23.80;;;13.10;;
78430;SDS011;67727;50.236;22.452;2023-12-20T13:12:06;46.30;;;24.90;;
78430;SDS011;67727;50.236;22.452;2023-12-20T13:14:33;33.60;;;19.00;;
78430;SDS011;67727;50.236;22.452;2023-12-20T13:17:03;44.00;;;24.50;;
78430;SDS011;67727;50.236;22.452;2023-12-20T13:19:30;66.30;;;35.60;;
78430;SDS011;67727;50.236;22.452;2023-12-20T13:21:56;36.80;;;18.80;;
78430;SDS011;67727;50.236;22.452;2023-12-20T13:24:23;34.80;;;19.50;;
78430;SDS011;67727;50.236;22.452;2023-12-20T13:26:50;48.00;;;28.10;;
78430;SDS011;67727;50.236;22.452;2023-12-20T13:29:16;26.00;;;13.20;;
78430;SDS011;67727;50.236;22.452;2023-12-20T13:31:42;42.60;;;17.10;;
78430;SDS011;67727;50.236;22.452;2023-12-20T13:34:08;32.20;;;13.90;;
78430;SDS011;67727;50.236;22.452;2023-12-20T13:36:35;34.40;;;14.60;;
78430;SDS011;67727;50.236;22.452;2023-12-20T13:39:03;37.90;;;17.10;;
78430;SDS011;67727;50.236;22.452;2023-12-20T13:41:31;25.10;;;12.50;;
78430;SDS011;67727;50.236;22.452;2023-12-20T13:43:57;32.60;;;14.10;;
78430;SDS011;67727;50.236;22.452;2023-12-20T13:46:23;39.00;;;16.40;;
78430;SDS011;67727;50.236;22.452;2023-12-20T13:48:50;34.20;;;14.80;;
78430;SDS011;67727;50.236;22.452;2023-12-20T13:51:16;36.30;;;16.60;;
78430;SDS011;67727;50.236;22.452;2023-12-20T13:53:42;32.00;;;16.30;;
78430;SDS011;67727;50.236;22.452;2023-12-20T13:56:09;85.40;;;33.40;;
78430;SDS011;67727;50.236;22.452;2023-12-20T13:58:35;68.30;;;29.00;;
78430;SDS011;67727;50.236;22.452;2023-12-20T14:01:01;43.80;;;19.90;;
78430;SDS011;67727;50.236;22.452;2023-12-20T14:03:27;42.20;;;20.20;;
78430;SDS011;67727;50.236;22.452;2023-12-20T14:05:54;61.30;;;26.00;;
78430;SDS011;67727;50.236;22.452;2023-12-20T14:08:20;47.40;;;21.10;;
78430;SDS011;67727;50.236;22.452;2023-12-20T14:10:46;53.90;;;23.70;;
78430;SDS011;67727;50.236;22.452;2023-12-20T14:13:13;49.70;;;20.90;;
78430;SDS011;67727;50.236;22.452;2023-12-20T14:15:39;35.80;;;18.00;;